Portada
METAR-TAF:

METAR-TAF

Aeroports :

Foz do Iguaçu, Paranà, Brasil

latitud: 25-31S, longitud: 054-35W, altitud: 180 m

Observació

L'informe es va fer fa 14 minuts, a les 09:00 UTC
Vent 9 kt del Sud/Sud-Est
Temperatura 19°C
Humitat 100%
Pressió 1008 hPa
Visibilitat 10 km o més
Cel cobert a una alçada de 4000 ft
pluja

METAR: SBFI 230900Z 16009KT 9999 -RA OVC040 19/19 Q1008

Hora: 06:14 (09:14 UTC)

Pronòstic

L'informe es va fer fa 7 hores i 44 minuts, a les 01:30 UTC
Pronòstic vàlid del 23 a les 06 UTC al 24 a les 06 UTC
Vent 8 kt del Est/Sud-Est
Visibilitat 10 km o més
Cel ennuvolat a una alçada de 2000 ft
Temporalment
l' 23 a les 06 UTC al 23 a les 11 UTC
Visibilitat: 5000 m
Cel ennuvolat a una alçada de 1000 ft
boirina
Evolucionant progressivament
l' 23 a les 12 UTC al 23 a les 14 UTC
Núvols disperses a una alçada de 3000 ft

TAF: SBFI 230130Z 2306/2406 12008KT 9999 BKN020 TN19/2308Z TX28/2318Z TEMPO 2306/2311 5000 BR BKN010 BECMG 2312/2314 SCT030 RMK PEB

Observacions i pronòstics meteorològics de més de 4000 aeroports (METAR i TAF).

Les estacions disponibles són els punts grocs i vermells al mapa.

Posi el ratolí al punt desitjat per veure el nom de l'estació.

Feu clic per veure les observacions i els pronòstics meteorològics.

Per canviar el mapa: feu clic els botons verds amb una creu de color negre per apropar; al botó verd amb un guió per allunyar la imatge; o en les fletxes verdes per a mapes adjacents.


METAR-TAF: